Logo AVAMET
Benvolgut visitant, si us plau, ingressa Recuperar contrasenya

Bolulla

Dades diàries. Acumulats / Últims 30 dies disponibles

Data Temperatura (°C) Humitat rel. (%) Pressió rel. (hPa) Vent (km/h) Precipitació
Mínima Mitjana Màxima Amplitud
tèrmica
Mínima Mitjana Màxima Mínima Mitjana Màxima Predom. Mitjana Ràfega
màxima
Total
(mm)
Índex-n
Mínima Mitjana Màxima Mínima Mitjana Màxima n
0 a 1
P0 max
mm 5'
Dades mensuals acumulades fins l'últim dia disponible
10/2019 15,6 16,7 17,6 20,9 24,0 25,5 27,9 12,3 30 75 95 0 984 987   7,5 52,2 3,8
Dades anuals acumulades fins l'últim dia disponible
2019 3,2 13,8 26,4 18,0 10,7 22,6 38,4 35,2 6 66 99 0 996 1.032   8,1 79,6 345,1
Últims 30 dies disponibles
14-10-2019 17,1     20,6     24,9 7,8 49 84 93 0 979 987 SO 6,6 52,2 3,8
11-10-2019 17,1     20,8     24,9 7,8 66 82 92 987 987 987 O 6,4 20,9 0,0
10-10-2019 17,1     20,7     25,1 8,0 63 82 92 0 980 987 O 6,1 20,4 0,0
09-10-2019 16,5     20,0     24,7 8,2 67 83 93 0 983 987 O 7,7 20,4 0,0
08-10-2019 16,2     19,6     24,2 8,0 70 82 92 987 987 987 OSO 8,9 30,5 0,0
07-10-2019 17,2     20,7     25,1 7,9 58 77 93 987 987 987 OSO 6,7 25,9 0,0
06-10-2019 16,8     20,6     25,1 8,3 71 85 93 0 976 987 OSO 6,6 25,9 0,0
05-10-2019 16,3     21,4     27,1 10,8 46 70 93 0 983 987 O 7,4 22,6 0,0
04-10-2019 15,6     20,3     26,2 10,6 47 67 87 0 983 987 O 7,7 20,9 0,0
03-10-2019 16,2     19,5     24,0 7,8 58 71 87 987 987 987 O 8,0 22,2 0,0
02-10-2019 17,6     23,7     27,3 9,7 30 48 74 0 983 987 OSO 10,3 40,7 0,0
01-10-2019 16,8     22,4     27,9 11,1 30 76 95 987 987 987 O 7,0 29,6 0,0
30-09-2019 19,0     22,2     26,3 7,3 55 74 94 987 987 987 OSO 7,0 20,4 0,0
29-09-2019 17,4     21,6     26,8 9,4 53 80 96 0 980 987 O 7,1 20,9 0,0
28-09-2019 17,2     21,7     26,9 9,7 67 83 94 0 980 987 OSO 6,8 20,4 0,0
27-09-2019 17,7     21,6     27,0 9,3 56 80 94 0 983 987 O 7,2 20,4 0,0
26-09-2019 18,4     21,7     25,9 7,5 69 83 92 0 983 987 O 7,2 24,1 0,0
25-09-2019 19,9     24,6     29,1 9,2 41 63 91 0 983 987 OSO 9,1 51,8 0,0
24-09-2019 16,7     21,1     29,1 12,4 53 77 91 987 987 987 ONO 7,6 20,4 0,0
23-09-2019 19,0     23,1     26,8 7,8 43 61 90 0 983 987 SSO 7,1 38,9 0,0
22-09-2019 20,0     23,0     27,4 7,4 68 82 91 0 983 987 OSO 6,8 22,6 0,0
21-09-2019 21,2     23,4     27,4 6,2 65 80 90 0 983 987 S 5,7 28,1 0,0
20-09-2019 19,3     22,2     26,1 6,8 67 81 91 0 983 987 SO 6,8 29,6 0,0
19-09-2019 18,3     22,1     26,9 8,6 54 73 92 987 987 987 O 7,6 20,9 0,0
18-09-2019 19,1     23,0     28,2 9,1 64 78 94 987 987 987 OSO 6,8 18,5 0,0
17-09-2019 19,4     22,1     27,7 8,3 71 89 94 0 980 987 OSO 5,7 25,9 0,0
16-09-2019 20,8     23,9     28,1 7,3 62 81 94 0 983 987 SSE 5,7 29,6 0,0
15-09-2019 22,8     23,9     25,7 2,9 73 80 85 0 976 987 E 8,6 38,9 0,0
14-09-2019 19,7     21,9     23,2 3,5 73 80 86 987 987 987 ESE 11,5 50,3 1,5 0,21 0,40
13-09-2019 19,6     21,5     24,1 4,5 63 81 93 0 979 987 ESE 10,0 50,3 6,2
Últims 13 mesos disponibles
09/2019 13,7 18,8 22,8 22,2 21,4 26,5 30,6 16,9 61 78 89 968 981 987 OSO 7,4 59,9 212,8
07/2019 19,4 21,6 26,4 26,2 25,0 31,2 38,4 19,0 37 60 80 966 982 987 OSO 8,0 46,3 0,2
06/2019 13,6 17,0 23,4 22,3 22,2 27,7 36,3 22,7 39 58 79 973 982 987 OSO 8,3 42,6 0,5
05/2019 9,8 13,2 18,7 17,4 18,0 22,1 26,9 17,1 56 70 84 962 984 1.001 OSO 8,1 54,2 7,1
04/2019 7,4 10,7 14,2 14,5 14,1 18,5 26,2 18,8 43 70 91 978 995 1.001 OSO 8,3 79,6
03/2019 6,8 9,0 12,2 13,4 12,2 18,0 26,4 19,6 40 61 85 991 1.014 1.028 O 8,2 56,1 44,0
02/2019 4,1 7,2 10,7 11,7 11,8 16,5 20,7 16,6 39 62 80 996 1.023 1.031 O 8,4 72,9 0,3
01/2019 3,2 7,1 11,3 10,5 10,7 14,9 19,7 16,5 43 64 85 1.003 1.017 1.029 ONO 8,7 75,9 15,7
12/2018 6,4 8,8 11,8 12,4 12,4 17,3 21,2 14,8 51 72 89 1.008 1.023 1.030 ONO 7,0 68,5 43,1
11/2018 7,5 11,0 16,9 14,0 13,4 17,6 21,8 14,3 56 73 89 999 1.014 1.021 O 7,5 63,3 146,0
10/2018 8,2 14,6 18,0 17,8 14,6 21,9 26,2 18,0 47 74 84 998 1.013 1.024 7,8 70,3 107,8
09/2018 14,6 19,9 22,8 23,2 23,6 27,5 31,3 16,7 65 77 86 1.011 1.018 1.026 7,3 48,1 102,1
08/2018 19,6 22,1 25,6 25,8 25,1 30,1 35,3 15,7 48 70 89 1.012 1.015 1.020 7,2 39,6 19,8
Tots els anys disponibles
2018 2,8 13,6 27,2 17,3 7,4 21,5 35,3 32,5 41 69 90 984 1.013 1.032 OSO 8,0 85,1 705,8
2017 3,8 14,1 26,7 18,4 8,4 22,9 34,6 30,8 41 68 89 998 1.017 1.033 OSO 2,6 96,0 223,0
2016
Temperatura (°C)
Humitat relativa (%)
Velocitat del vent i ràfega màxima (km/h)
Direcció del vent (°)
Pressió (hPa)
Precipitació (mm)
Nota sobre les dades: s'avisa a l'usuari de la provisionalitat i no oficialitat d'aquestes dades
Logo AVAMET blanc
Web allotjada a Sollutia
Llicència de Creative CommonsLa web d'AVAMET i els seus continguts estan subjectes a una llicència de
Reconeixement - No Comercial - Compartir igual
Últimes estacions: Villena - Villa Ventín (Soci), Benissa - Convent (Soci), Xàbia Fontanella (Soci), Castielfabib (Soci), Sant Mateu (Soci), Vallada (Soci), Agullent (Soci), - - -